createdAt,value
2018-03-09T00:00:35.671Z,19.36
2018-03-09T00:01:44.892Z,19.33
2018-03-09T00:02:53.842Z,19.33
2018-03-09T00:04:03.375Z,19.39
2018-03-09T00:05:13.131Z,19.31
2018-03-09T00:06:22.663Z,19.26
2018-03-09T00:07:32.177Z,19.31
2018-03-09T00:08:41.938Z,19.23
2018-03-09T00:09:51.693Z,19.33
2018-03-09T00:11:00.649Z,19.33
2018-03-09T00:12:09.873Z,19.29
2018-03-09T00:13:19.366Z,19.26
2018-03-09T00:14:28.855Z,19.36
2018-03-09T00:15:38.074Z,19.31
2018-03-09T00:16:47.846Z,19.26
2018-03-09T00:17:57.593Z,19.29
2018-03-09T00:19:07.085Z,19.25
2018-03-09T00:20:16.851Z,19.26
2018-03-09T00:21:25.817Z,19.29
2018-03-09T00:22:35.581Z,19.32
2018-03-09T00:23:45.345Z,19.28
2018-03-09T00:24:55.364Z,19.28
2018-03-09T00:26:04.582Z,19.28
2018-03-09T00:27:14.337Z,19.36
2018-03-09T00:28:24.108Z,19.29
2018-03-09T00:29:33.600Z,19.28
2018-03-09T00:30:42.554Z,19.36
2018-03-09T00:31:51.532Z,19.28
2018-03-09T00:33:01.290Z,19.26
2018-03-09T00:34:10.513Z,19.26
2018-03-09T00:35:19.779Z,19.36
2018-03-09T00:36:29.548Z,19.32
2018-03-09T00:37:39.042Z,19.31
2018-03-09T00:38:48.791Z,19.28
2018-03-09T00:39:58.376Z,19.37
2018-03-09T00:41:07.848Z,19.37
2018-03-09T00:42:17.878Z,19.36
2018-03-09T00:43:27.095Z,19.32
2018-03-09T00:44:36.044Z,19.25
2018-03-09T00:45:45.330Z,19.28
2018-03-09T00:46:54.827Z,19.31
2018-03-09T00:48:03.782Z,19.31
2018-03-09T00:49:13.267Z,19.33
2018-03-09T00:50:22.753Z,19.36
2018-03-09T00:51:32.780Z,19.36
2018-03-09T00:52:42.540Z,19.33
2018-03-09T00:53:51.221Z,19.28
2018-03-09T00:55:00.709Z,19.28
2018-03-09T00:56:09.929Z,19.33
2018-03-09T00:57:19.459Z,19.31
2018-03-09T00:58:29.214Z,19.32
2018-03-09T00:59:39.257Z,19.33
2018-03-09T01:00:49.019Z,19.32
2018-03-09T01:01:58.238Z,19.36
2018-03-09T01:03:08.014Z,19.31
2018-03-09T01:04:17.497Z,19.32
2018-03-09T01:05:27.519Z,19.28
2018-03-09T01:06:37.012Z,19.32
2018-03-09T01:07:46.543Z,19.36
2018-03-09T01:08:55.767Z,19.28
2018-03-09T01:10:05.526Z,19.37
2018-03-09T01:11:15.013Z,19.32
2018-03-09T01:12:24.513Z,19.32
2018-03-09T01:13:34.006Z,19.28
2018-03-09T01:14:43.768Z,19.32
2018-03-09T01:15:53.258Z,19.32
2018-03-09T01:17:03.015Z,19.36
2018-03-09T01:18:12.513Z,19.37
2018-03-09T01:19:22.007Z,19.28
2018-03-09T01:20:31.495Z,19.28
2018-03-09T01:21:40.181Z,19.31
2018-03-09T01:22:49.667Z,19.32
2018-03-09T01:23:59.154Z,19.21
2018-03-09T01:25:08.375Z,19.29
2018-03-09T01:26:18.129Z,19.26
2018-03-09T01:27:27.613Z,19.29
2018-03-09T01:28:37.099Z,19.33
2018-03-09T01:29:46.597Z,19.28
2018-03-09T01:30:56.091Z,19.31
2018-03-09T01:32:05.332Z,19.26
2018-03-09T01:33:14.822Z,19.23
2018-03-09T01:34:24.314Z,19.26
2018-03-09T01:35:33.538Z,19.29
2018-03-09T01:36:42.757Z,19.28
2018-03-09T01:37:51.976Z,19.29
2018-03-09T01:39:01.199Z,19.28
2018-03-09T01:40:10.734Z,19.28
2018-03-09T01:41:20.821Z,19.26
2018-03-09T01:42:30.026Z,19.32
2018-03-09T01:43:39.255Z,19.29
2018-03-09T01:44:48.212Z,19.23
2018-03-09T01:45:57.701Z,19.28
2018-03-09T01:47:07.190Z,19.28
2018-03-09T01:48:16.410Z,19.28
2018-03-09T01:49:26.489Z,19.29
2018-03-09T01:50:35.993Z,19.25
2018-03-09T01:51:45.749Z,19.22
2018-03-09T01:52:55.506Z,19.25
2018-03-09T01:54:04.729Z,19.25
2018-03-09T01:55:13.678Z,19.25
2018-03-09T01:56:23.165Z,19.25
2018-03-09T01:57:32.647Z,19.26
2018-03-09T01:58:42.134Z,19.14
2018-03-09T01:59:51.358Z,19.26
2018-03-09T02:01:00.851Z,19.25
2018-03-09T02:02:10.072Z,19.26
2018-03-09T02:03:19.563Z,19.31
2018-03-09T02:04:28.787Z,19.29
2018-03-09T02:05:38.271Z,19.1
2018-03-09T02:06:48.290Z,19.26
2018-03-09T02:07:57.771Z,19.23
2018-03-09T02:09:07.264Z,19.28
2018-03-09T02:10:16.478Z,19.22
2018-03-09T02:11:25.431Z,19.29
2018-03-09T02:12:34.919Z,19.25
2018-03-09T02:13:44.408Z,19.25
2018-03-09T02:14:53.905Z,19.29
2018-03-09T02:16:03.391Z,19.23
2018-03-09T02:17:12.612Z,19.25
2018-03-09T02:18:22.362Z,19.22
2018-03-09T02:19:31.854Z,19.22
2018-03-09T02:20:41.339Z,19.22
2018-03-09T02:21:50.827Z,19.18
2018-03-09T02:23:00.592Z,19.21
2018-03-09T02:24:09.824Z,19.26
2018-03-09T02:25:19.314Z,19.25
2018-03-09T02:26:28.579Z,19.26
2018-03-09T02:27:38.070Z,19.31
2018-03-09T02:28:47.824Z,19.25
2018-03-09T02:32:34.333Z,19.22
2018-03-09T02:33:43.822Z,19.23
2018-03-09T02:34:53.317Z,19.1
2018-03-09T02:36:02.545Z,19.19
2018-03-09T02:37:12.590Z,19.22
2018-03-09T02:38:22.083Z,19.1
2018-03-09T02:39:31.308Z,19.23
2018-03-09T02:40:41.067Z,19.19
2018-03-09T02:41:50.310Z,19.25
2018-03-09T02:42:59.798Z,19.22
2018-03-09T02:44:09.289Z,19.18
2018-03-09T02:45:19.049Z,19.11
2018-03-09T02:46:28.546Z,19.1
2018-03-09T02:47:37.496Z,19.19
2018-03-09T02:48:46.989Z,19.18
2018-03-09T02:49:56.479Z,19.13
2018-03-09T02:51:05.433Z,19.16
2018-03-09T02:52:15.201Z,19.11
2018-03-09T02:53:24.691Z,19.18
2018-03-09T02:54:34.461Z,19.13
2018-03-09T02:55:43.694Z,19.14
2018-03-09T02:56:52.925Z,19.16
2018-03-09T02:58:02.688Z,19.1
2018-03-09T02:59:12.463Z,19.19
2018-03-09T03:00:21.955Z,19.21
2018-03-09T03:01:31.717Z,19.22
2018-03-09T03:02:40.936Z,19.13
2018-03-09T03:03:50.695Z,19.18
2018-03-09T03:05:00.452Z,19.23
2018-03-09T03:06:09.945Z,19.16
2018-03-09T03:07:19.702Z,19.18
2018-03-09T03:08:29.727Z,19.19
2018-03-09T03:09:39.218Z,19.1
2018-03-09T03:10:48.442Z,19.13
2018-03-09T03:11:57.944Z,19.18
2018-03-09T03:13:07.437Z,19.1
2018-03-09T03:14:16.927Z,19.14
2018-03-09T03:15:26.682Z,19.21
2018-03-09T03:16:35.907Z,19.11
2018-03-09T03:17:45.445Z,19.19
2018-03-09T03:18:54.931Z,19.18
2018-03-09T03:20:04.688Z,19.22
2018-03-09T03:21:14.453Z,19.14
2018-03-09T03:22:23.953Z,19.07
2018-03-09T03:23:33.181Z,19.14
2018-03-09T03:24:42.404Z,19.13
2018-03-09T03:25:52.161Z,19.18
2018-03-09T03:27:01.384Z,19.19
2018-03-09T03:28:10.870Z,19.16
2018-03-09T03:29:20.089Z,19.11
2018-03-09T03:30:29.850Z,19.21
2018-03-09T03:31:39.355Z,19.08
2018-03-09T03:32:48.847Z,19.16
2018-03-09T03:33:57.798Z,19.14
2018-03-09T03:35:07.830Z,19.11
2018-03-09T03:36:17.331Z,19.18
2018-03-09T03:37:26.824Z,19.11
2018-03-09T03:38:36.046Z,19.13
2018-03-09T03:39:44.999Z,19.13
2018-03-09T03:40:54.491Z,19.11
2018-03-09T03:42:35.845Z,19.19
2018-03-09T03:43:45.068Z,19.08
2018-03-09T03:44:54.832Z,19.1
2018-03-09T03:46:03.788Z,19.07
2018-03-09T03:47:13.007Z,19.11
2018-03-09T03:48:23.034Z,19.1
2018-03-09T03:49:32.253Z,19.1
2018-03-09T03:50:42.010Z,19.08
2018-03-09T03:51:51.504Z,19.1
2018-03-09T03:53:01.266Z,19.13
2018-03-09T03:54:10.762Z,19.16
2018-03-09T03:55:19.719Z,19.13
2018-03-09T03:56:28.674Z,19.16
2018-03-09T03:57:38.170Z,19.11
2018-03-09T03:58:47.665Z,19.13
2018-03-09T03:59:56.887Z,19.02
2018-03-09T04:01:06.377Z,19.02
2018-03-09T04:02:15.864Z,19.1
2018-03-09T04:03:25.356Z,19.07
2018-03-09T04:04:34.844Z,19.1
2018-03-09T04:05:44.340Z,19.02
2018-03-09T04:06:53.833Z,19.16
2018-03-09T04:08:03.590Z,19.02
2018-03-09T04:09:13.353Z,19.06
2018-03-09T04:10:22.847Z,19.08
2018-03-09T04:11:32.611Z,19.18
2018-03-09T04:12:42.107Z,19.06
2018-03-09T04:13:52.135Z,19.06
2018-03-09T04:15:01.089Z,19.06
2018-03-09T04:16:10.580Z,19.07
2018-03-09T04:17:20.343Z,19.07
2018-03-09T04:18:30.104Z,19.02
2018-03-09T04:19:39.859Z,18.99
2018-03-09T04:20:49.360Z,19.07
2018-03-09T04:21:59.389Z,19.1
2018-03-09T04:23:08.074Z,19.02
2018-03-09T04:24:17.037Z,19.1
2018-03-09T04:25:26.530Z,19.11
2018-03-09T04:26:36.295Z,19.04
2018-03-09T04:27:45.519Z,19.02
2018-03-09T04:28:54.736Z,19.08
2018-03-09T04:30:03.964Z,19.14
2018-03-09T04:31:13.990Z,19.06
2018-03-09T04:32:23.761Z,19.04
2018-03-09T04:33:33.526Z,19.08
2018-03-09T04:34:42.754Z,19.04
2018-03-09T04:35:52.242Z,19.08
2018-03-09T04:37:01.463Z,19.07
2018-03-09T04:38:11.225Z,18.99
2018-03-09T04:39:21.256Z,19.04
2018-03-09T04:40:30.474Z,18.99
2018-03-09T04:41:39.701Z,19.06
2018-03-09T04:42:49.458Z,19.1
2018-03-09T04:43:58.680Z,19.06
2018-03-09T04:45:08.719Z,19.07
2018-03-09T04:46:17.941Z,19.06
2018-03-09T04:47:27.430Z,19
2018-03-09T04:48:36.919Z,19.06
2018-03-09T04:49:46.141Z,19.07
2018-03-09T04:50:55.903Z,19.04
2018-03-09T04:52:04.858Z,19.07
2018-03-09T04:53:14.347Z,18.99
2018-03-09T04:54:23.836Z,18.99
2018-03-09T04:55:33.329Z,19.06
2018-03-09T04:56:42.831Z,19
2018-03-09T04:57:52.315Z,19.02
2018-03-09T04:59:01.548Z,19.02
2018-03-09T05:00:11.583Z,19.1
2018-03-09T05:01:20.798Z,19.04
2018-03-09T05:02:30.023Z,18.95
2018-03-09T05:03:39.520Z,18.99
2018-03-09T05:04:49.018Z,19.06
2018-03-09T05:05:59.052Z,19.04
2018-03-09T05:07:09.078Z,19
2018-03-09T05:08:18.844Z,19.11
2018-03-09T05:09:28.332Z,19.06
2018-03-09T05:10:37.560Z,19.04
2018-03-09T05:11:47.330Z,19.08
2018-03-09T05:12:56.554Z,19.04
2018-03-09T05:14:05.775Z,18.98
2018-03-09T05:15:14.729Z,19.1
2018-03-09T05:16:24.487Z,19.02
2018-03-09T05:17:34.519Z,19.02
2018-03-09T05:18:43.480Z,19.06
2018-03-09T05:19:52.433Z,19.07
2018-03-09T05:21:01.922Z,19.11
2018-03-09T05:22:11.424Z,19.06
2018-03-09T05:23:20.652Z,19.02
2018-03-09T05:24:29.883Z,19
2018-03-09T05:25:39.911Z,19.07
2018-03-09T05:26:49.138Z,19.06
2018-03-09T05:27:58.359Z,19.1
2018-03-09T05:29:07.858Z,19.1
2018-03-09T05:30:17.613Z,19.18
2018-03-09T05:31:27.097Z,19.14
2018-03-09T05:32:36.324Z,19.21
2018-03-09T05:33:46.080Z,19.11
2018-03-09T05:34:55.849Z,19.04
2018-03-09T05:36:05.612Z,19.18
2018-03-09T05:37:15.423Z,19.1
2018-03-09T05:38:25.174Z,19.18
2018-03-09T05:39:34.132Z,19.13
2018-03-09T05:40:43.892Z,19.16
2018-03-09T05:41:53.454Z,19.21
2018-03-09T05:43:03.204Z,19.23
2018-03-09T05:44:12.967Z,19.32
2018-03-09T05:45:22.527Z,19.22
2018-03-09T05:46:32.019Z,19.22
2018-03-09T05:47:41.244Z,19.25
2018-03-09T05:48:50.468Z,19.31
2018-03-09T05:49:59.422Z,19.29
2018-03-09T05:51:08.917Z,19.36
2018-03-09T05:52:18.411Z,19.22
2018-03-09T05:53:27.637Z,19.28
2018-03-09T05:54:36.857Z,19.36
2018-03-09T05:55:46.631Z,19.36
2018-03-09T05:56:56.121Z,19.31
2018-03-09T05:58:05.472Z,19.32
2018-03-09T05:59:15.618Z,19.28
2018-03-09T06:00:25.109Z,19.32
2018-03-09T06:01:34.872Z,19.28
2018-03-09T06:02:44.095Z,19.22
2018-03-09T06:03:53.853Z,19.26
2018-03-09T06:05:02.816Z,19.25
2018-03-09T06:06:12.575Z,19.25
2018-03-09T06:07:22.334Z,19.29
2018-03-09T06:08:32.156Z,19.26
2018-03-09T06:09:41.390Z,19.28
2018-03-09T06:10:50.378Z,19.28
2018-03-09T06:11:59.381Z,19.36
2018-03-09T06:13:09.145Z,19.29
2018-03-09T06:14:18.368Z,19.26
2018-03-09T06:15:27.594Z,19.25
2018-03-09T06:16:36.869Z,19.26
2018-03-09T06:17:47.297Z,19.32
2018-03-09T06:18:56.273Z,19.21
2018-03-09T06:20:05.499Z,19.26
2018-03-09T06:21:15.251Z,19.28
2018-03-09T06:22:24.745Z,19.26
2018-03-09T06:23:33.701Z,19.26
2018-03-09T06:24:42.920Z,19.25
2018-03-09T06:25:51.874Z,19.25
2018-03-09T06:27:01.369Z,19.23
2018-03-09T06:28:10.869Z,19.13
2018-03-09T06:29:20.635Z,19.22
2018-03-09T06:30:29.862Z,19.25
2018-03-09T06:31:39.888Z,19.28
2018-03-09T06:32:49.644Z,19.37
2018-03-09T06:33:59.137Z,19.28
2018-03-09T06:35:08.660Z,19.25
2018-03-09T06:36:17.885Z,19.31
2018-03-09T06:37:27.372Z,19.29
2018-03-09T06:38:36.862Z,19.26
2018-03-09T06:39:46.084Z,19.36
2018-03-09T06:40:55.310Z,19.28
2018-03-09T06:42:05.067Z,19.36
2018-03-09T06:43:40.499Z,19.36
2018-03-09T06:44:50.527Z,19.32
2018-03-09T06:46:00.031Z,19.33
2018-03-09T06:47:09.252Z,19.31
2018-03-09T06:48:19.018Z,19.37
2018-03-09T06:49:28.506Z,19.36
2018-03-09T06:50:38.263Z,19.28
2018-03-09T06:51:47.488Z,19.32
2018-03-09T06:52:56.983Z,19.28
2018-03-09T06:54:06.474Z,19.29
2018-03-09T06:55:16.235Z,19.37
2018-03-09T06:56:26.263Z,19.33
2018-03-09T06:57:35.755Z,19.31
2018-03-09T06:58:44.978Z,19.32
2018-03-09T06:59:54.204Z,19.22
2018-03-09T07:01:03.702Z,19.33
2018-03-09T07:02:13.192Z,19.26
2018-03-09T07:03:22.956Z,19.28
2018-03-09T07:04:32.453Z,19.32
2018-03-09T07:05:41.944Z,19.33
2018-03-09T07:06:51.169Z,19.32
2018-03-09T07:08:00.937Z,19.28
2018-03-09T07:09:10.438Z,19.32
2018-03-09T07:10:19.926Z,19.33
2018-03-09T07:11:29.419Z,19.33
2018-03-09T07:12:38.912Z,19.28
2018-03-09T07:13:48.669Z,19.29
2018-03-09T07:14:57.894Z,19.33
2018-03-09T07:16:07.116Z,19.36
2018-03-09T07:17:16.345Z,19.36
2018-03-09T07:18:25.840Z,19.33
2018-03-09T07:19:35.331Z,19.37
2018-03-09T07:20:45.086Z,19.31
2018-03-09T07:21:54.309Z,19.36
2018-03-09T07:23:04.067Z,19.29
2018-03-09T07:24:13.311Z,19.28
2018-03-09T07:25:22.799Z,19.25
2018-03-09T07:26:32.291Z,19.31
2018-03-09T07:27:41.517Z,19.28
2018-03-09T07:28:51.555Z,19.32
2018-03-09T07:30:01.314Z,19.32
2018-03-09T07:31:10.821Z,19.37
2018-03-09T07:32:20.313Z,19.26
2018-03-09T07:33:30.079Z,19.36
2018-03-09T07:34:39.337Z,19.39
2018-03-09T07:35:49.290Z,19.28
2018-03-09T07:36:59.402Z,19.29
2018-03-09T07:38:08.415Z,19.26
2018-03-09T07:39:17.977Z,19.36
2018-03-09T07:40:27.535Z,19.32
2018-03-09T07:41:37.095Z,19.29
2018-03-09T07:42:47.207Z,19.37
2018-03-09T07:43:56.494Z,19.28
2018-03-09T07:45:06.057Z,19.25
2018-03-09T07:46:15.889Z,19.37
2018-03-09T07:47:25.453Z,19.37
2018-03-09T07:48:35.282Z,19.32
2018-03-09T07:49:44.843Z,19.31
2018-03-09T07:50:54.406Z,19.32
2018-03-09T07:52:04.245Z,19.28
2018-03-09T07:53:13.540Z,19.32
2018-03-09T07:54:22.280Z,19.28
2018-03-09T07:55:31.873Z,19.36
2018-03-09T07:56:41.499Z,19.26
2018-03-09T07:57:51.496Z,19.32
2018-03-09T07:59:00.844Z,19.29
2018-03-09T08:00:10.752Z,19.28
2018-03-09T08:01:20.653Z,19.25
2018-03-09T08:02:30.003Z,19.26
2018-03-09T08:03:39.912Z,19.25
2018-03-09T08:04:49.259Z,19.29
2018-03-09T08:05:58.901Z,19.32
2018-03-09T08:07:08.249Z,19.26
2018-03-09T08:08:17.894Z,19.28
2018-03-09T08:09:27.521Z,19.36
2018-03-09T08:10:36.867Z,19.28
2018-03-09T08:11:46.216Z,19.36
2018-03-09T08:12:55.570Z,19.26
2018-03-09T08:14:05.485Z,19.25
2018-03-09T08:15:14.553Z,19.31
2018-03-09T08:16:23.899Z,19.28
2018-03-09T08:17:33.828Z,19.28
2018-03-09T08:18:43.587Z,19.32
2018-03-09T08:19:53.375Z,19.26
2018-03-09T08:21:03.000Z,19.28
2018-03-09T08:22:12.349Z,19.23
2018-03-09T08:23:21.977Z,19.29
2018-03-09T08:24:31.923Z,19.32
2018-03-09T08:25:41.552Z,19.28
2018-03-09T08:26:51.598Z,19.32
2018-03-09T08:28:01.553Z,19.23
2018-03-09T08:29:10.902Z,19.23
2018-03-09T08:30:20.946Z,19.33
2018-03-09T08:31:30.274Z,19.36
2018-03-09T08:32:40.220Z,19.28
2018-03-09T08:33:49.550Z,19.37
2018-03-09T08:34:58.872Z,19.33
2018-03-09T08:36:09.062Z,19.33
2018-03-09T08:37:18.409Z,19.36
2018-03-09T08:38:28.038Z,19.25
2018-03-09T08:39:37.950Z,19.33
2018-03-09T08:40:48.138Z,19.36
2018-03-09T08:41:58.042Z,19.31
2018-03-09T08:43:07.668Z,19.32
2018-03-09T08:44:29.756Z,19.28
2018-03-09T08:45:39.382Z,19.25
2018-03-09T08:46:49.010Z,19.32
2018-03-09T08:47:58.365Z,19.32
2018-03-09T08:49:07.722Z,19.28
2018-03-09T08:50:17.354Z,19.31
2018-03-09T08:51:26.983Z,19.31
2018-03-09T08:52:36.617Z,19.31
2018-03-09T08:53:46.579Z,19.37
2018-03-09T08:54:56.489Z,19.25
2018-03-09T08:56:06.116Z,19.32
2018-03-09T08:57:15.749Z,19.28
2018-03-09T08:58:25.674Z,19.31
2018-03-09T08:59:35.664Z,19.31
2018-03-09T09:00:45.018Z,19.32
2018-03-09T09:01:54.954Z,19.37
2018-03-09T09:03:04.859Z,19.28
2018-03-09T09:04:14.828Z,19.32
2018-03-09T09:05:24.457Z,19.29
2018-03-09T09:06:33.803Z,19.31
2018-03-09T09:07:43.429Z,19.26
2018-03-09T09:08:53.063Z,19.26
2018-03-09T09:10:02.706Z,19.32
2018-03-09T09:11:12.901Z,19.28
2018-03-09T09:12:21.694Z,19.26
2018-03-09T09:13:31.049Z,19.32
2018-03-09T09:14:41.123Z,19.23
2018-03-09T09:15:50.488Z,19.28
2018-03-09T09:17:00.403Z,19.29
2018-03-09T09:18:10.310Z,19.26
2018-03-09T09:19:20.217Z,19.28
2018-03-09T09:20:30.132Z,19.26
2018-03-09T09:21:39.760Z,19.28
2018-03-09T09:22:49.944Z,19.29
2018-03-09T09:23:59.578Z,19.28
2018-03-09T09:25:09.761Z,19.29
2018-03-09T09:26:19.389Z,19.31
2018-03-09T09:27:29.376Z,19.28
2018-03-09T09:28:39.315Z,19.29
2018-03-09T09:29:48.666Z,19.28
2018-03-09T09:30:58.290Z,19.29
2018-03-09T09:32:07.918Z,19.25
2018-03-09T09:33:17.271Z,19.26
2018-03-09T09:34:26.583Z,19.16
2018-03-09T09:35:36.440Z,19.29
2018-03-09T09:36:46.113Z,19.25
2018-03-09T09:37:55.453Z,19.29
2018-03-09T09:39:04.524Z,19.25
2018-03-09T09:40:13.876Z,19.28
2018-03-09T09:41:23.505Z,19.29
2018-03-09T09:42:33.133Z,19.29
2018-03-09T09:43:42.490Z,19.25
2018-03-09T09:44:52.394Z,19.25
2018-03-09T09:46:02.020Z,19.26
2018-03-09T09:47:11.936Z,19.32
2018-03-09T09:48:21.851Z,19.22
2018-03-09T09:49:32.036Z,19.26
2018-03-09T09:50:41.668Z,19.21
2018-03-09T09:51:51.301Z,19.23
2018-03-09T09:53:00.938Z,19.31
2018-03-09T09:54:10.292Z,19.29
2018-03-09T09:55:19.920Z,19.26
2018-03-09T09:56:29.270Z,19.28
2018-03-09T09:57:39.459Z,19.28
2018-03-09T09:58:49.372Z,19.28
2018-03-09T09:59:58.162Z,19.26
2018-03-09T10:01:07.512Z,19.25
2018-03-09T10:02:17.145Z,19.25
2018-03-09T10:03:26.497Z,19.28
2018-03-09T10:04:36.127Z,19.28
2018-03-09T10:05:45.476Z,19.32
2018-03-09T10:06:55.665Z,19.25
2018-03-09T10:08:05.014Z,19.25
2018-03-09T10:09:14.365Z,19.31
2018-03-09T10:10:23.718Z,19.26
2018-03-09T10:11:33.347Z,19.32
2018-03-09T10:12:42.977Z,19.33
2018-03-09T10:13:52.884Z,19.31
2018-03-09T10:15:02.517Z,19.28
2018-03-09T10:16:11.308Z,19.32
2018-03-09T10:17:21.233Z,19.28
2018-03-09T10:18:31.207Z,19.29
2018-03-09T10:19:41.119Z,19.31
2018-03-09T10:20:50.193Z,19.28
2018-03-09T10:21:59.837Z,19.28
2018-03-09T10:23:09.241Z,19.28
2018-03-09T10:24:18.591Z,19.29
2018-03-09T10:25:27.939Z,19.28
2018-03-09T10:26:37.569Z,19.26
2018-03-09T10:27:47.192Z,19.28
2018-03-09T10:28:57.140Z,19.28
2018-03-09T10:30:06.212Z,19.28
2018-03-09T10:31:15.562Z,19.32
2018-03-09T10:32:25.190Z,19.31
2018-03-09T10:33:35.094Z,19.28
2018-03-09T10:34:44.439Z,19.25
2018-03-09T10:35:54.040Z,19.32
2018-03-09T10:37:03.669Z,19.36
2018-03-09T10:38:13.022Z,19.32
2018-03-09T10:39:23.202Z,19.28
2018-03-09T10:40:32.550Z,19.31
2018-03-09T10:41:42.735Z,19.28
2018-03-09T10:42:52.084Z,19.31
2018-03-09T10:44:01.714Z,19.31
2018-03-09T10:45:24.083Z,19.37
2018-03-09T10:46:33.431Z,19.31
2018-03-09T10:47:43.057Z,19.32
2018-03-09T10:48:52.127Z,19.28
2018-03-09T10:50:02.032Z,19.32
2018-03-09T10:51:11.381Z,19.31
2018-03-09T10:52:20.730Z,19.28
2018-03-09T10:53:30.649Z,19.37
2018-03-09T10:54:40.277Z,19.33
2018-03-09T10:55:49.911Z,19.28
2018-03-09T10:56:59.570Z,19.36
2018-03-09T10:58:08.918Z,19.32
2018-03-09T10:59:17.989Z,19.29
2018-03-09T11:00:27.705Z,19.31
2018-03-09T11:01:37.337Z,19.28
2018-03-09T11:02:46.683Z,19.36
2018-03-09T11:03:56.874Z,19.36
2018-03-09T11:05:06.783Z,19.28
2018-03-09T11:06:16.980Z,19.23
2018-03-09T11:07:26.889Z,19.39
2018-03-09T11:08:36.793Z,19.39
2018-03-09T11:09:46.699Z,19.37
2018-03-09T11:10:56.058Z,19.37
2018-03-09T11:12:05.400Z,19.39
2018-03-09T11:13:14.481Z,19.41
2018-03-09T11:14:23.839Z,19.5
2018-03-09T11:15:33.191Z,19.5
2018-03-09T11:16:42.819Z,19.5
2018-03-09T11:17:52.164Z,19.56
2018-03-09T11:19:02.067Z,19.55
2018-03-09T11:20:11.697Z,19.46
2018-03-09T11:21:21.322Z,19.5
2018-03-09T11:22:30.948Z,19.59
2018-03-09T11:23:40.295Z,19.58
2018-03-09T11:24:49.919Z,19.59
2018-03-09T11:25:59.311Z,19.58
2018-03-09T11:27:08.988Z,19.62
2018-03-09T11:28:18.616Z,19.65
2018-03-09T11:29:28.529Z,19.71
2018-03-09T11:30:38.154Z,19.58
2018-03-09T11:31:47.789Z,19.76
2018-03-09T11:32:57.977Z,19.74
2018-03-09T11:34:07.047Z,19.71
2018-03-09T11:35:16.361Z,19.73
2018-03-09T11:36:25.946Z,19.73
2018-03-09T11:37:35.298Z,19.73
2018-03-09T11:38:44.655Z,19.66
2018-03-09T11:39:54.002Z,19.81
2018-03-09T11:41:03.774Z,19.83
2018-03-09T11:42:13.964Z,19.81
2018-03-09T11:43:23.592Z,19.84
2018-03-09T11:44:32.952Z,19.87
2018-03-09T11:45:42.304Z,19.8
2018-03-09T11:46:51.376Z,19.86
2018-03-09T11:48:00.728Z,19.86
2018-03-09T11:49:09.801Z,19.91
2018-03-09T11:50:20.068Z,19.94
2018-03-09T11:51:29.820Z,19.96
2018-03-09T11:52:39.726Z,20.01
2018-03-09T11:53:48.798Z,20.03
2018-03-09T11:54:58.142Z,19.96
2018-03-09T11:56:07.769Z,20.02
2018-03-09T11:57:17.674Z,20.01
2018-03-09T11:58:27.303Z,19.98
2018-03-09T11:59:36.932Z,19.99
2018-03-09T12:00:46.838Z,20.05
2018-03-09T12:01:56.187Z,19.99
2018-03-09T12:03:06.091Z,19.88
2018-03-09T12:04:15.449Z,20.06
2018-03-09T12:05:24.885Z,19.91
2018-03-09T12:06:34.234Z,19.88
2018-03-09T12:07:44.189Z,19.94
2018-03-09T12:08:54.095Z,19.92
2018-03-09T12:10:03.722Z,20.08
2018-03-09T12:11:12.793Z,19.95
2018-03-09T12:12:22.421Z,20.08
2018-03-09T12:13:32.051Z,20.01
2018-03-09T12:14:42.239Z,19.99
2018-03-09T12:15:51.876Z,19.99
2018-03-09T12:17:01.504Z,20.02
2018-03-09T12:18:11.137Z,19.99
2018-03-09T12:19:21.044Z,19.94
2018-03-09T12:20:30.394Z,20.03
2018-03-09T12:21:39.742Z,20.02
2018-03-09T12:22:49.648Z,20.02
2018-03-09T12:23:59.279Z,19.95
2018-03-09T12:25:09.226Z,19.96
2018-03-09T12:26:19.137Z,20.01
2018-03-09T12:27:28.487Z,19.95
2018-03-09T12:28:38.114Z,20.03
2018-03-09T12:29:47.184Z,20.06
2018-03-09T12:30:56.531Z,19.95
2018-03-09T12:32:06.161Z,20.01
2018-03-09T12:33:16.066Z,20.06
2018-03-09T12:34:25.974Z,19.96
2018-03-09T12:35:35.576Z,20.05
2018-03-09T12:36:45.183Z,20.1
2018-03-09T12:37:55.089Z,20.08
2018-03-09T12:39:04.726Z,20.1
2018-03-09T12:40:14.656Z,20.08
2018-03-09T12:41:24.288Z,20.08
2018-03-09T12:42:33.910Z,20.1
2018-03-09T12:43:42.975Z,20.08
2018-03-09T12:44:52.605Z,20.05
2018-03-09T12:46:08.311Z,20.06
2018-03-09T12:47:18.846Z,20.06
2018-03-09T12:48:28.748Z,20.11
2018-03-09T12:49:38.100Z,20.03
2018-03-09T12:50:47.727Z,20.08
2018-03-09T12:51:57.634Z,20.03
2018-03-09T12:53:07.267Z,20.08
2018-03-09T12:54:17.244Z,20.06
2018-03-09T12:55:26.884Z,20.14
2018-03-09T12:56:36.516Z,20.16
2018-03-09T12:57:46.138Z,20.1
2018-03-09T12:58:56.056Z,20.08
2018-03-09T13:00:05.509Z,20.08
2018-03-09T13:01:14.785Z,20.11
2018-03-09T13:02:24.135Z,20.08
2018-03-09T13:03:33.765Z,20.1
2018-03-09T13:04:43.405Z,20.06
2018-03-09T13:05:53.318Z,20.11
2018-03-09T13:07:02.389Z,20.03
2018-03-09T13:08:11.738Z,20.13
2018-03-09T13:09:21.367Z,20.16
2018-03-09T13:10:31.276Z,20.03
2018-03-09T13:11:40.908Z,20.08
2018-03-09T13:12:50.538Z,20.11
2018-03-09T13:13:59.606Z,20.13
2018-03-09T13:15:08.964Z,20.13
2018-03-09T13:16:18.597Z,20.06
2018-03-09T13:17:28.223Z,20.08
2018-03-09T13:18:37.551Z,20.13
2018-03-09T13:19:47.382Z,20.13
2018-03-09T13:20:57.230Z,20.08
2018-03-09T13:22:06.519Z,20.16
2018-03-09T13:23:15.510Z,20.02
2018-03-09T13:24:25.270Z,20.1
2018-03-09T13:25:34.780Z,20.13
2018-03-09T13:26:44.557Z,20.02
2018-03-09T13:27:54.116Z,20.08
2018-03-09T13:29:03.608Z,20.06
2018-03-09T13:30:13.099Z,20.05
2018-03-09T13:31:22.858Z,20.05
2018-03-09T13:32:32.083Z,20.08
2018-03-09T13:33:41.579Z,20.03
2018-03-09T13:34:51.605Z,20.1
2018-03-09T13:36:01.098Z,20.08
2018-03-09T13:37:10.322Z,20.08
2018-03-09T13:38:20.083Z,20.03
2018-03-09T13:39:29.043Z,20.03
2018-03-09T13:40:38.277Z,20.1
2018-03-09T13:41:47.510Z,20.08
2018-03-09T13:42:57.003Z,20.08
2018-03-09T13:44:05.688Z,20.05
2018-03-09T13:45:15.449Z,20.08
2018-03-09T13:46:24.666Z,20.11
2018-03-09T13:47:34.158Z,20.05
2018-03-09T13:48:43.655Z,20.1
2018-03-09T13:49:53.420Z,20.02
2018-03-09T13:51:02.916Z,20.03
2018-03-09T13:52:12.680Z,20.06
2018-03-09T13:53:22.446Z,20.06
2018-03-09T13:54:31.134Z,20.1
2018-03-09T13:55:40.629Z,20.06
2018-03-09T13:56:50.713Z,20.05
2018-03-09T13:57:59.670Z,20.03
2018-03-09T13:59:09.427Z,20.05
2018-03-09T14:00:18.649Z,20.11
2018-03-09T14:01:28.146Z,20.03
2018-03-09T14:02:37.377Z,20.13
2018-03-09T14:03:47.138Z,20.08
2018-03-09T14:04:56.364Z,20.06
2018-03-09T14:06:06.123Z,20.1
2018-03-09T14:07:15.893Z,20.06
2018-03-09T14:08:25.169Z,20.02
2018-03-09T14:09:34.605Z,20.05
2018-03-09T14:10:44.376Z,20.06
2018-03-09T14:11:53.871Z,19.99
2018-03-09T14:13:03.643Z,19.99
2018-03-09T14:14:13.142Z,20.1
2018-03-09T14:15:22.630Z,20.01
2018-03-09T14:16:32.394Z,20.05
2018-03-09T14:17:41.885Z,19.96
2018-03-09T14:18:51.382Z,20.01
2018-03-09T14:20:01.142Z,19.99
2018-03-09T14:21:09.831Z,19.99
2018-03-09T14:22:19.048Z,19.96
2018-03-09T14:23:28.543Z,19.95
2018-03-09T14:24:38.077Z,19.98
2018-03-09T14:25:48.187Z,19.99
2018-03-09T14:26:57.957Z,20.05
2018-03-09T14:28:06.916Z,19.94
2018-03-09T14:29:15.604Z,19.96
2018-03-09T14:30:24.834Z,19.98
2018-03-09T14:31:34.323Z,20.01
2018-03-09T14:32:43.547Z,20.05
2018-03-09T14:33:53.318Z,20.02
2018-03-09T14:35:02.858Z,19.99
2018-03-09T14:36:12.393Z,19.96
2018-03-09T14:37:22.291Z,20.01
2018-03-09T14:38:31.514Z,20.05
2018-03-09T14:39:41.005Z,20.05
2018-03-09T14:40:50.495Z,19.96
2018-03-09T14:41:59.450Z,19.96
2018-03-09T14:43:08.950Z,19.92
2018-03-09T14:44:18.987Z,20.06
2018-03-09T14:45:28.219Z,19.98
2018-03-09T14:46:37.712Z,19.99
2018-03-09T14:47:47.474Z,20.02
2018-03-09T14:48:56.701Z,20.01
2018-03-09T14:50:05.661Z,19.88
2018-03-09T14:51:15.432Z,20.01
2018-03-09T14:52:24.656Z,19.92
2018-03-09T14:53:34.148Z,19.8
2018-03-09T14:54:43.372Z,19.91
2018-03-09T14:55:52.341Z,19.92
2018-03-09T14:57:01.569Z,19.99
2018-03-09T14:58:11.330Z,19.99
2018-03-09T14:59:20.552Z,19.95
2018-03-09T15:00:29.776Z,20.02
2018-03-09T15:01:39.270Z,20.02